CheckWX is a tool to help pilots better visualize weather data.  It is not intended as a substitute for an official pre-flight weather briefing.

01:56:15 UTC

KBIH METAR
Bishop Airport
Bishop, California, USA
Current

60 mins ago

KBIH 240056Z AUTO 20004KT 10SM CLR 08/M12 A3017 RMK AO2 SLP225 T00831117
Observed
Feb-24 @ 00:56 UTC
Wind
  • 200° at 4 KTS
Visibility
10 SM
Flight Rules
VFR
Cloud Levels
  • Clear skies
Temperature
C / 46°F
Dewpoint
-12°C / 10°F
Humidity
23%
Altimeter
30.17" Hg
Pressure
1022.5 hPa
Previous

2 hours ago

KBIH 232356Z AUTO 00000KT 10SM CLR 09/M17 A3017 RMK AO2 SLP225 T00891167 10094 20028 56011
Observed
Feb-23 @ 23:56 UTC
Visibility
10 SM
Flight Rules
VFR
Cloud Levels
  • Clear skies
Temperature
C / 48°F
Dewpoint
-17°C / 1°F
Humidity
14%
Altimeter
30.17" Hg
Pressure
1022.5 hPa
Previous

3 hours ago

KBIH 232256Z AUTO 22006KT 10SM CLR 09/M17 A3018 RMK AO2 SLP226 T00891167
Observed
Feb-23 @ 22:56 UTC
Wind
  • 220° at 6 KTS
Visibility
10 SM
Flight Rules
VFR
Cloud Levels
  • Clear skies
Temperature
C / 48°F
Dewpoint
-17°C / 1°F
Humidity
14%
Altimeter
30.18" Hg
Pressure
1022.6 hPa